sensor_id;sensor_type;location;lat;lon;timestamp;temperature;humidity
9466;DHT22;4771;48.726;9.006;2023-09-07T00:01:18;16.90;99.90
9466;DHT22;4771;48.726;9.006;2023-09-07T00:03:45;16.80;99.90
9466;DHT22;4771;48.726;9.006;2023-09-07T00:06:11;16.80;99.90
9466;DHT22;4771;48.726;9.006;2023-09-07T00:08:40;16.70;99.90
9466;DHT22;4771;48.726;9.006;2023-09-07T00:11:08;16.80;99.90
9466;DHT22;4771;48.726;9.006;2023-09-07T00:13:35;16.70;99.90
9466;DHT22;4771;48.726;9.006;2023-09-07T00:16:03;16.70;99.90
9466;DHT22;4771;48.726;9.006;2023-09-07T00:18:30;16.60;99.90
9466;DHT22;4771;48.726;9.006;2023-09-07T00:20:58;16.60;99.90
9466;DHT22;4771;48.726;9.006;2023-09-07T00:23:25;16.60;99.90
9466;DHT22;4771;48.726;9.006;2023-09-07T00:25:53;16.60;99.90
9466;DHT22;4771;48.726;9.006;2023-09-07T00:28:20;16.60;99.90
9466;DHT22;4771;48.726;9.006;2023-09-07T00:30:47;16.50;99.90
9466;DHT22;4771;48.726;9.006;2023-09-07T00:33:14;16.50;99.90
9466;DHT22;4771;48.726;9.006;2023-09-07T00:35:40;16.50;99.90
9466;DHT22;4771;48.726;9.006;2023-09-07T00:38:07;16.50;99.90
9466;DHT22;4771;48.726;9.006;2023-09-07T00:40:35;16.40;99.90
9466;DHT22;4771;48.726;9.006;2023-09-07T00:43:03;16.40;99.90
9466;DHT22;4771;48.726;9.006;2023-09-07T00:45:31;16.40;99.90
9466;DHT22;4771;48.726;9.006;2023-09-07T00:47:58;16.40;99.90
9466;DHT22;4771;48.726;9.006;2023-09-07T00:50:25;16.40;99.90
9466;DHT22;4771;48.726;9.006;2023-09-07T00:52:52;16.30;99.90
9466;DHT22;4771;48.726;9.006;2023-09-07T00:55:19;16.30;99.90
9466;DHT22;4771;48.726;9.006;2023-09-07T00:57:47;16.30;99.90
9466;DHT22;4771;48.726;9.006;2023-09-07T01:00:15;16.20;99.90
9466;DHT22;4771;48.726;9.006;2023-09-07T01:02:42;16.30;99.90
9466;DHT22;4771;48.726;9.006;2023-09-07T01:05:10;16.20;99.90
9466;DHT22;4771;48.726;9.006;2023-09-07T01:07:42;16.20;99.90
9466;DHT22;4771;48.726;9.006;2023-09-07T01:10:10;16.20;99.90
9466;DHT22;4771;48.726;9.006;2023-09-07T01:12:36;16.20;99.90
9466;DHT22;4771;48.726;9.006;2023-09-07T01:15:04;16.10;99.90
9466;DHT22;4771;48.726;9.006;2023-09-07T01:17:35;16.10;99.90
9466;DHT22;4771;48.726;9.006;2023-09-07T01:20:04;16.10;99.90
9466;DHT22;4771;48.726;9.006;2023-09-07T01:22:36;16.10;99.90
9466;DHT22;4771;48.726;9.006;2023-09-07T01:25:05;16.00;99.90
9466;DHT22;4771;48.726;9.006;2023-09-07T01:27:33;16.00;99.90
9466;DHT22;4771;48.726;9.006;2023-09-07T01:30:00;16.00;99.90
9466;DHT22;4771;48.726;9.006;2023-09-07T01:32:28;16.00;99.90
9466;DHT22;4771;48.726;9.006;2023-09-07T01:34:55;15.90;99.90
9466;DHT22;4771;48.726;9.006;2023-09-07T01:37:23;15.90;99.90
9466;DHT22;4771;48.726;9.006;2023-09-07T01:39:51;15.90;99.90
9466;DHT22;4771;48.726;9.006;2023-09-07T01:42:18;15.90;99.90
9466;DHT22;4771;48.726;9.006;2023-09-07T01:44:47;15.90;99.90
9466;DHT22;4771;48.726;9.006;2023-09-07T01:47:14;15.90;99.90
9466;DHT22;4771;48.726;9.006;2023-09-07T01:49:40;15.80;99.90
9466;DHT22;4771;48.726;9.006;2023-09-07T01:52:07;15.80;99.90
9466;DHT22;4771;48.726;9.006;2023-09-07T01:54:34;15.80;99.90
9466;DHT22;4771;48.726;9.006;2023-09-07T01:57:03;15.70;99.90
9466;DHT22;4771;48.726;9.006;2023-09-07T01:59:29;15.80;99.90
9466;DHT22;4771;48.726;9.006;2023-09-07T02:01:56;15.80;99.90
9466;DHT22;4771;48.726;9.006;2023-09-07T02:04:23;15.70;99.90
9466;DHT22;4771;48.726;9.006;2023-09-07T02:06:50;15.70;99.90
9466;DHT22;4771;48.726;9.006;2023-09-07T02:09:17;15.70;99.90
9466;DHT22;4771;48.726;9.006;2023-09-07T02:11:43;15.70;99.90
9466;DHT22;4771;48.726;9.006;2023-09-07T02:14:12;15.70;99.90
9466;DHT22;4771;48.726;9.006;2023-09-07T02:16:38;15.70;99.90
9466;DHT22;4771;48.726;9.006;2023-09-07T02:19:06;15.70;99.90
9466;DHT22;4771;48.726;9.006;2023-09-07T02:21:33;15.70;99.90
9466;DHT22;4771;48.726;9.006;2023-09-07T02:24:00;15.80;99.90
9466;DHT22;4771;48.726;9.006;2023-09-07T02:26:27;15.60;99.90
9466;DHT22;4771;48.726;9.006;2023-09-07T02:28:53;15.40;99.90
9466;DHT22;4771;48.726;9.006;2023-09-07T02:31:22;15.60;99.90
9466;DHT22;4771;48.726;9.006;2023-09-07T02:33:49;15.60;99.90
9466;DHT22;4771;48.726;9.006;2023-09-07T02:36:16;15.50;99.90
9466;DHT22;4771;48.726;9.006;2023-09-07T02:38:43;15.50;99.90
9466;DHT22;4771;48.726;9.006;2023-09-07T02:41:10;15.50;99.90
9466;DHT22;4771;48.726;9.006;2023-09-07T02:43:36;15.50;99.90
9466;DHT22;4771;48.726;9.006;2023-09-07T02:46:03;15.50;99.90
9466;DHT22;4771;48.726;9.006;2023-09-07T02:48:32;15.50;99.90
9466;DHT22;4771;48.726;9.006;2023-09-07T02:50:58;15.50;99.90
9466;DHT22;4771;48.726;9.006;2023-09-07T02:53:26;15.50;99.90
9466;DHT22;4771;48.726;9.006;2023-09-07T02:55:52;15.50;99.90
9466;DHT22;4771;48.726;9.006;2023-09-07T02:58:19;15.50;99.90
9466;DHT22;4771;48.726;9.006;2023-09-07T03:00:46;15.40;99.90
9466;DHT22;4771;48.726;9.006;2023-09-07T03:03:13;15.50;99.90
9466;DHT22;4771;48.726;9.006;2023-09-07T03:05:43;15.40;99.90
9466;DHT22;4771;48.726;9.006;2023-09-07T03:08:10;15.40;99.90
9466;DHT22;4771;48.726;9.006;2023-09-07T03:10:38;15.30;99.90
9466;DHT22;4771;48.726;9.006;2023-09-07T03:13:05;15.50;99.90
9466;DHT22;4771;48.726;9.006;2023-09-07T03:15:32;15.30;99.90
9466;DHT22;4771;48.726;9.006;2023-09-07T03:17:59;15.30;99.90
9466;DHT22;4771;48.726;9.006;2023-09-07T03:20:26;15.30;99.90
9466;DHT22;4771;48.726;9.006;2023-09-07T03:22:54;15.30;99.90
9466;DHT22;4771;48.726;9.006;2023-09-07T03:25:21;15.30;99.90
9466;DHT22;4771;48.726;9.006;2023-09-07T03:27:48;15.30;99.90
9466;DHT22;4771;48.726;9.006;2023-09-07T03:30:15;15.30;99.90
9466;DHT22;4771;48.726;9.006;2023-09-07T03:32:42;15.30;99.90
9466;DHT22;4771;48.726;9.006;2023-09-07T03:35:09;15.30;99.90
9466;DHT22;4771;48.726;9.006;2023-09-07T03:37:36;15.30;99.90
9466;DHT22;4771;48.726;9.006;2023-09-07T03:40:06;15.30;99.90
9466;DHT22;4771;48.726;9.006;2023-09-07T03:42:35;15.30;99.90
9466;DHT22;4771;48.726;9.006;2023-09-07T03:45:03;15.30;99.90
9466;DHT22;4771;48.726;9.006;2023-09-07T03:47:30;15.20;99.90
9466;DHT22;4771;48.726;9.006;2023-09-07T03:49:57;15.20;99.90
9466;DHT22;4771;48.726;9.006;2023-09-07T03:52:24;15.20;99.90
9466;DHT22;4771;48.726;9.006;2023-09-07T03:54:53;15.20;99.90
9466;DHT22;4771;48.726;9.006;2023-09-07T03:57:22;15.20;99.90
9466;DHT22;4771;48.726;9.006;2023-09-07T03:59:49;15.10;99.90
9466;DHT22;4771;48.726;9.006;2023-09-07T04:02:16;15.10;99.90
9466;DHT22;4771;48.726;9.006;2023-09-07T04:04:43;15.10;99.90
9466;DHT22;4771;48.726;9.006;2023-09-07T04:07:14;15.10;99.90
9466;DHT22;4771;48.726;9.006;2023-09-07T04:09:41;15.00;99.90
9466;DHT22;4771;48.726;9.006;2023-09-07T04:12:08;15.00;99.90
9466;DHT22;4771;48.726;9.006;2023-09-07T04:14:37;15.00;99.90
9466;DHT22;4771;48.726;9.006;2023-09-07T04:17:04;15.00;99.90
9466;DHT22;4771;48.726;9.006;2023-09-07T04:19:31;15.00;99.90
9466;DHT22;4771;48.726;9.006;2023-09-07T04:21:58;15.00;99.90
9466;DHT22;4771;48.726;9.006;2023-09-07T04:24:25;15.00;99.90
9466;DHT22;4771;48.726;9.006;2023-09-07T04:26:53;15.00;99.90
9466;DHT22;4771;48.726;9.006;2023-09-07T04:29:20;15.00;99.90
9466;DHT22;4771;48.726;9.006;2023-09-07T04:31:48;14.90;99.90
9466;DHT22;4771;48.726;9.006;2023-09-07T04:34:15;15.00;99.90
9466;DHT22;4771;48.726;9.006;2023-09-07T04:36:42;15.10;99.90
9466;DHT22;4771;48.726;9.006;2023-09-07T04:39:08;14.90;99.90
9466;DHT22;4771;48.726;9.006;2023-09-07T04:41:35;14.90;99.90
9466;DHT22;4771;48.726;9.006;2023-09-07T04:44:02;14.90;99.90
9466;DHT22;4771;48.726;9.006;2023-09-07T04:46:29;14.90;99.90
9466;DHT22;4771;48.726;9.006;2023-09-07T04:48:58;14.90;99.90
9466;DHT22;4771;48.726;9.006;2023-09-07T04:51:24;14.90;99.90
9466;DHT22;4771;48.726;9.006;2023-09-07T04:53:52;14.90;99.90
9466;DHT22;4771;48.726;9.006;2023-09-07T04:56:19;14.90;99.90
9466;DHT22;4771;48.726;9.006;2023-09-07T04:58:47;14.90;99.90
9466;DHT22;4771;48.726;9.006;2023-09-07T05:01:14;14.90;99.90
9466;DHT22;4771;48.726;9.006;2023-09-07T05:03:41;14.90;99.90
9466;DHT22;4771;48.726;9.006;2023-09-07T05:06:10;14.90;99.90
9466;DHT22;4771;48.726;9.006;2023-09-07T05:08:37;14.90;99.90
9466;DHT22;4771;48.726;9.006;2023-09-07T05:11:04;14.90;99.90
9466;DHT22;4771;48.726;9.006;2023-09-07T05:13:31;14.90;99.90
9466;DHT22;4771;48.726;9.006;2023-09-07T05:15:59;14.90;99.90
9466;DHT22;4771;48.726;9.006;2023-09-07T05:18:26;14.90;99.90
9466;DHT22;4771;48.726;9.006;2023-09-07T05:20:53;14.90;99.90
9466;DHT22;4771;48.726;9.006;2023-09-07T05:23:22;14.90;99.90
9466;DHT22;4771;48.726;9.006;2023-09-07T05:25:52;14.90;99.90
9466;DHT22;4771;48.726;9.006;2023-09-07T05:28:21;14.90;99.90
9466;DHT22;4771;48.726;9.006;2023-09-07T05:30:48;14.90;99.90
9466;DHT22;4771;48.726;9.006;2023-09-07T05:33:17;14.90;99.90
9466;DHT22;4771;48.726;9.006;2023-09-07T05:35:44;14.90;99.90
9466;DHT22;4771;48.726;9.006;2023-09-07T05:38:12;15.00;99.90
9466;DHT22;4771;48.726;9.006;2023-09-07T05:40:42;15.00;99.90
9466;DHT22;4771;48.726;9.006;2023-09-07T05:43:09;15.00;99.90
9466;DHT22;4771;48.726;9.006;2023-09-07T05:45:38;15.00;99.90
9466;DHT22;4771;48.726;9.006;2023-09-07T05:48:06;15.00;99.90
9466;DHT22;4771;48.726;9.006;2023-09-07T05:50:34;15.00;99.90
9466;DHT22;4771;48.726;9.006;2023-09-07T05:53:01;15.10;99.90
9466;DHT22;4771;48.726;9.006;2023-09-07T05:55:29;15.10;99.90
9466;DHT22;4771;48.726;9.006;2023-09-07T05:57:58;15.10;99.90
9466;DHT22;4771;48.726;9.006;2023-09-07T06:00:25;15.10;99.90
9466;DHT22;4771;48.726;9.006;2023-09-07T06:02:52;15.20;99.90
9466;DHT22;4771;48.726;9.006;2023-09-07T06:05:19;15.20;99.90
9466;DHT22;4771;48.726;9.006;2023-09-07T06:07:46;15.20;99.90
9466;DHT22;4771;48.726;9.006;2023-09-07T06:10:13;15.30;99.90
9466;DHT22;4771;48.726;9.006;2023-09-07T06:12:40;15.30;99.90
9466;DHT22;4771;48.726;9.006;2023-09-07T06:15:08;15.30;99.90
9466;DHT22;4771;48.726;9.006;2023-09-07T06:17:36;15.30;99.90
9466;DHT22;4771;48.726;9.006;2023-09-07T06:20:03;15.40;99.90
9466;DHT22;4771;48.726;9.006;2023-09-07T06:22:31;15.40;99.90
9466;DHT22;4771;48.726;9.006;2023-09-07T06:24:58;15.40;99.90
9466;DHT22;4771;48.726;9.006;2023-09-07T06:27:25;15.50;99.90
9466;DHT22;4771;48.726;9.006;2023-09-07T06:29:52;15.50;99.90
9466;DHT22;4771;48.726;9.006;2023-09-07T06:32:20;15.60;99.90
9466;DHT22;4771;48.726;9.006;2023-09-07T06:34:47;15.60;99.90
9466;DHT22;4771;48.726;9.006;2023-09-07T06:37:14;15.70;99.90
9466;DHT22;4771;48.726;9.006;2023-09-07T06:39:40;15.80;99.90
9466;DHT22;4771;48.726;9.006;2023-09-07T06:42:09;15.80;99.90
9466;DHT22;4771;48.726;9.006;2023-09-07T06:44:36;15.90;99.90
9466;DHT22;4771;48.726;9.006;2023-09-07T06:47:03;15.90;99.90
9466;DHT22;4771;48.726;9.006;2023-09-07T06:49:31;16.00;99.90
9466;DHT22;4771;48.726;9.006;2023-09-07T06:51:58;16.10;99.90
9466;DHT22;4771;48.726;9.006;2023-09-07T06:54:27;16.20;99.90
9466;DHT22;4771;48.726;9.006;2023-09-07T06:56:54;16.20;99.90
9466;DHT22;4771;48.726;9.006;2023-09-07T06:59:21;16.30;99.90
9466;DHT22;4771;48.726;9.006;2023-09-07T07:01:48;16.40;99.90
9466;DHT22;4771;48.726;9.006;2023-09-07T07:04:14;16.50;99.90
9466;DHT22;4771;48.726;9.006;2023-09-07T07:06:43;16.60;99.90
9466;DHT22;4771;48.726;9.006;2023-09-07T07:09:10;16.70;99.90
9466;DHT22;4771;48.726;9.006;2023-09-07T07:11:37;16.70;99.90
9466;DHT22;4771;48.726;9.006;2023-09-07T07:14:04;16.80;99.90
9466;DHT22;4771;48.726;9.006;2023-09-07T07:16:31;16.90;99.90
9466;DHT22;4771;48.726;9.006;2023-09-07T07:18:58;17.00;99.90
9466;DHT22;4771;48.726;9.006;2023-09-07T07:21:25;17.00;99.90
9466;DHT22;4771;48.726;9.006;2023-09-07T07:23:53;17.10;99.90
9466;DHT22;4771;48.726;9.006;2023-09-07T07:26:20;17.20;99.90
9466;DHT22;4771;48.726;9.006;2023-09-07T07:28:47;17.20;99.90
9466;DHT22;4771;48.726;9.006;2023-09-07T07:31:14;17.30;99.90
9466;DHT22;4771;48.726;9.006;2023-09-07T07:33:40;17.30;99.90
9466;DHT22;4771;48.726;9.006;2023-09-07T07:36:07;17.40;99.90
9466;DHT22;4771;48.726;9.006;2023-09-07T07:38:34;17.50;99.90
9466;DHT22;4771;48.726;9.006;2023-09-07T07:41:03;17.60;99.90
9466;DHT22;4771;48.726;9.006;2023-09-07T07:43:32;17.70;99.90
9466;DHT22;4771;48.726;9.006;2023-09-07T07:45:59;17.70;99.90
9466;DHT22;4771;48.726;9.006;2023-09-07T07:48:26;17.80;99.90
9466;DHT22;4771;48.726;9.006;2023-09-07T07:50:54;17.90;99.90
9466;DHT22;4771;48.726;9.006;2023-09-07T07:53:21;18.00;99.90
9466;DHT22;4771;48.726;9.006;2023-09-07T07:55:48;18.00;99.90
9466;DHT22;4771;48.726;9.006;2023-09-07T07:58:16;18.10;99.90
9466;DHT22;4771;48.726;9.006;2023-09-07T08:00:43;18.20;99.90
9466;DHT22;4771;48.726;9.006;2023-09-07T08:03:13;18.20;99.90
9466;DHT22;4771;48.726;9.006;2023-09-07T08:05:40;18.30;99.90
9466;DHT22;4771;48.726;9.006;2023-09-07T08:08:10;18.40;99.90
9466;DHT22;4771;48.726;9.006;2023-09-07T08:10:37;18.40;99.90
9466;DHT22;4771;48.726;9.006;2023-09-07T08:13:06;18.50;99.90
9466;DHT22;4771;48.726;9.006;2023-09-07T08:15:34;18.60;99.90
9466;DHT22;4771;48.726;9.006;2023-09-07T08:18:01;18.60;99.90
9466;DHT22;4771;48.726;9.006;2023-09-07T08:20:29;18.70;99.90
9466;DHT22;4771;48.726;9.006;2023-09-07T08:22:58;18.80;99.90
9466;DHT22;4771;48.726;9.006;2023-09-07T08:25:29;18.80;99.90
9466;DHT22;4771;48.726;9.006;2023-09-07T08:27:55;18.90;99.90
9466;DHT22;4771;48.726;9.006;2023-09-07T08:30:25;18.90;99.90
9466;DHT22;4771;48.726;9.006;2023-09-07T08:32:53;19.00;99.90
9466;DHT22;4771;48.726;9.006;2023-09-07T08:35:20;19.10;99.90
9466;DHT22;4771;48.726;9.006;2023-09-07T08:37:52;19.10;99.90
9466;DHT22;4771;48.726;9.006;2023-09-07T08:40:19;19.20;99.90
9466;DHT22;4771;48.726;9.006;2023-09-07T08:42:46;19.30;99.90
9466;DHT22;4771;48.726;9.006;2023-09-07T08:45:15;19.30;99.90
9466;DHT22;4771;48.726;9.006;2023-09-07T08:47:49;19.30;99.90
9466;DHT22;4771;48.726;9.006;2023-09-07T08:50:18;19.40;99.90
9466;DHT22;4771;48.726;9.006;2023-09-07T08:52:46;19.40;99.90
9466;DHT22;4771;48.726;9.006;2023-09-07T08:55:15;19.50;99.90
9466;DHT22;4771;48.726;9.006;2023-09-07T08:57:42;19.60;99.90
9466;DHT22;4771;48.726;9.006;2023-09-07T09:00:10;19.70;99.90
9466;DHT22;4771;48.726;9.006;2023-09-07T09:02:41;19.70;99.90
9466;DHT22;4771;48.726;9.006;2023-09-07T09:05:09;19.80;99.90
9466;DHT22;4771;48.726;9.006;2023-09-07T09:07:37;19.90;99.90
9466;DHT22;4771;48.726;9.006;2023-09-07T09:10:05;20.00;99.90
9466;DHT22;4771;48.726;9.006;2023-09-07T09:12:32;20.10;99.90
9466;DHT22;4771;48.726;9.006;2023-09-07T09:15:00;20.20;99.90
9466;DHT22;4771;48.726;9.006;2023-09-07T09:17:27;20.20;99.90
9466;DHT22;4771;48.726;9.006;2023-09-07T09:19:54;20.30;99.90
9466;DHT22;4771;48.726;9.006;2023-09-07T09:22:21;20.40;99.90
9466;DHT22;4771;48.726;9.006;2023-09-07T09:24:49;20.50;99.90
9466;DHT22;4771;48.726;9.006;2023-09-07T09:27:16;20.60;99.90
9466;DHT22;4771;48.726;9.006;2023-09-07T09:29:43;20.70;99.90
9466;DHT22;4771;48.726;9.006;2023-09-07T09:32:14;20.80;99.90
9466;DHT22;4771;48.726;9.006;2023-09-07T09:34:43;20.90;99.90
9466;DHT22;4771;48.726;9.006;2023-09-07T09:37:13;20.90;99.90
9466;DHT22;4771;48.726;9.006;2023-09-07T09:39:41;21.00;99.90
9466;DHT22;4771;48.726;9.006;2023-09-07T09:42:10;21.10;99.90
9466;DHT22;4771;48.726;9.006;2023-09-07T09:44:39;21.20;99.90
9466;DHT22;4771;48.726;9.006;2023-09-07T09:47:08;21.30;99.90
9466;DHT22;4771;48.726;9.006;2023-09-07T09:49:35;21.40;99.90
9466;DHT22;4771;48.726;9.006;2023-09-07T09:52:03;21.50;99.90
9466;DHT22;4771;48.726;9.006;2023-09-07T09:54:32;21.50;99.90
9466;DHT22;4771;48.726;9.006;2023-09-07T09:57:01;21.60;99.90
9466;DHT22;4771;48.726;9.006;2023-09-07T09:59:29;21.70;99.90
9466;DHT22;4771;48.726;9.006;2023-09-07T10:01:57;21.80;99.90
9466;DHT22;4771;48.726;9.006;2023-09-07T10:04:26;21.80;99.90
9466;DHT22;4771;48.726;9.006;2023-09-07T10:06:55;21.90;99.90
9466;DHT22;4771;48.726;9.006;2023-09-07T10:09:23;22.10;99.90
9466;DHT22;4771;48.726;9.006;2023-09-07T10:11:53;22.10;99.90
9466;DHT22;4771;48.726;9.006;2023-09-07T10:14:21;22.20;99.90
9466;DHT22;4771;48.726;9.006;2023-09-07T10:16:50;22.40;99.90
9466;DHT22;4771;48.726;9.006;2023-09-07T10:19:19;22.50;99.90
9466;DHT22;4771;48.726;9.006;2023-09-07T10:21:46;22.60;99.90
9466;DHT22;4771;48.726;9.006;2023-09-07T10:24:23;22.70;99.90
9466;DHT22;4771;48.726;9.006;2023-09-07T10:26:59;22.70;99.90
9466;DHT22;4771;48.726;9.006;2023-09-07T10:29:26;22.90;99.90
9466;DHT22;4771;48.726;9.006;2023-09-07T10:31:55;23.00;99.90
9466;DHT22;4771;48.726;9.006;2023-09-07T10:34:34;23.00;99.90
9466;DHT22;4771;48.726;9.006;2023-09-07T10:37:01;23.10;99.90
9466;DHT22;4771;48.726;9.006;2023-09-07T10:39:31;23.30;99.90
9466;DHT22;4771;48.726;9.006;2023-09-07T10:41:58;23.30;99.90
9466;DHT22;4771;48.726;9.006;2023-09-07T10:44:25;23.40;99.90
9466;DHT22;4771;48.726;9.006;2023-09-07T10:46:55;23.60;99.90
9466;DHT22;4771;48.726;9.006;2023-09-07T10:49:23;23.70;99.90
9466;DHT22;4771;48.726;9.006;2023-09-07T10:51:50;23.80;99.90
9466;DHT22;4771;48.726;9.006;2023-09-07T10:54:18;23.90;99.90
9466;DHT22;4771;48.726;9.006;2023-09-07T10:56:45;23.90;99.90
9466;DHT22;4771;48.726;9.006;2023-09-07T10:59:13;24.00;99.90
9466;DHT22;4771;48.726;9.006;2023-09-07T11:01:40;24.00;99.90
9466;DHT22;4771;48.726;9.006;2023-09-07T11:04:08;24.10;99.90
9466;DHT22;4771;48.726;9.006;2023-09-07T11:06:37;24.20;99.90
9466;DHT22;4771;48.726;9.006;2023-09-07T11:09:04;24.20;99.90
9466;DHT22;4771;48.726;9.006;2023-09-07T11:11:34;24.30;99.90
9466;DHT22;4771;48.726;9.006;2023-09-07T11:14:02;24.40;99.90
9466;DHT22;4771;48.726;9.006;2023-09-07T11:16:29;24.50;99.90
9466;DHT22;4771;48.726;9.006;2023-09-07T11:18:56;24.60;99.90
9466;DHT22;4771;48.726;9.006;2023-09-07T11:21:27;24.70;99.90
9466;DHT22;4771;48.726;9.006;2023-09-07T11:23:53;24.70;99.90
9466;DHT22;4771;48.726;9.006;2023-09-07T11:26:20;24.80;99.90
9466;DHT22;4771;48.726;9.006;2023-09-07T11:28:48;24.90;99.90
9466;DHT22;4771;48.726;9.006;2023-09-07T11:31:19;25.00;99.90
9466;DHT22;4771;48.726;9.006;2023-09-07T11:33:47;25.00;99.90
9466;DHT22;4771;48.726;9.006;2023-09-07T11:36:14;25.20;99.90
9466;DHT22;4771;48.726;9.006;2023-09-07T11:38:43;25.30;99.90
9466;DHT22;4771;48.726;9.006;2023-09-07T11:41:11;25.30;99.90
9466;DHT22;4771;48.726;9.006;2023-09-07T11:43:38;25.40;99.90
9466;DHT22;4771;48.726;9.006;2023-09-07T11:46:05;25.40;99.90
9466;DHT22;4771;48.726;9.006;2023-09-07T11:48:32;25.50;99.90
9466;DHT22;4771;48.726;9.006;2023-09-07T11:51:00;25.60;99.90
9466;DHT22;4771;48.726;9.006;2023-09-07T11:53:27;25.70;99.90
9466;DHT22;4771;48.726;9.006;2023-09-07T11:55:56;25.80;99.90
9466;DHT22;4771;48.726;9.006;2023-09-07T11:58:24;25.90;99.90
9466;DHT22;4771;48.726;9.006;2023-09-07T12:00:52;26.00;99.90
9466;DHT22;4771;48.726;9.006;2023-09-07T12:03:20;26.00;99.90
9466;DHT22;4771;48.726;9.006;2023-09-07T12:05:47;26.10;99.90
9466;DHT22;4771;48.726;9.006;2023-09-07T12:08:14;26.10;99.90
9466;DHT22;4771;48.726;9.006;2023-09-07T12:10:42;26.20;99.90
9466;DHT22;4771;48.726;9.006;2023-09-07T12:13:10;26.20;99.90
9466;DHT22;4771;48.726;9.006;2023-09-07T12:15:37;26.30;99.90
9466;DHT22;4771;48.726;9.006;2023-09-07T12:18:04;26.40;99.90
9466;DHT22;4771;48.726;9.006;2023-09-07T12:20:31;26.40;99.90
9466;DHT22;4771;48.726;9.006;2023-09-07T12:22:59;26.50;99.90
9466;DHT22;4771;48.726;9.006;2023-09-07T12:25:26;26.60;99.90
9466;DHT22;4771;48.726;9.006;2023-09-07T12:27:53;26.60;99.90
9466;DHT22;4771;48.726;9.006;2023-09-07T12:30:21;26.70;99.90
9466;DHT22;4771;48.726;9.006;2023-09-07T12:32:50;26.80;99.90
9466;DHT22;4771;48.726;9.006;2023-09-07T12:35:17;26.80;99.90
9466;DHT22;4771;48.726;9.006;2023-09-07T12:37:45;26.80;99.90
9466;DHT22;4771;48.726;9.006;2023-09-07T12:40:12;26.90;99.90
9466;DHT22;4771;48.726;9.006;2023-09-07T12:42:40;26.90;99.90
9466;DHT22;4771;48.726;9.006;2023-09-07T12:45:08;27.00;99.90
9466;DHT22;4771;48.726;9.006;2023-09-07T12:47:37;27.00;99.90
9466;DHT22;4771;48.726;9.006;2023-09-07T12:50:05;27.10;99.90
9466;DHT22;4771;48.726;9.006;2023-09-07T12:52:32;27.10;99.90
9466;DHT22;4771;48.726;9.006;2023-09-07T12:55:00;27.10;99.70
9466;DHT22;4771;48.726;9.006;2023-09-07T12:57:26;27.20;98.90
9466;DHT22;4771;48.726;9.006;2023-09-07T12:59:53;27.20;98.90
9466;DHT22;4771;48.726;9.006;2023-09-07T13:02:20;27.20;98.50
9466;DHT22;4771;48.726;9.006;2023-09-07T13:04:48;27.10;99.10
9466;DHT22;4771;48.726;9.006;2023-09-07T13:07:15;27.10;98.60
9466;DHT22;4771;48.726;9.006;2023-09-07T13:09:43;27.10;99.70
9466;DHT22;4771;48.726;9.006;2023-09-07T13:12:10;27.10;99.30
9466;DHT22;4771;48.726;9.006;2023-09-07T13:14:37;27.10;99.00
9466;DHT22;4771;48.726;9.006;2023-09-07T13:17:04;27.00;99.50
9466;DHT22;4771;48.726;9.006;2023-09-07T13:19:31;27.00;98.90
9466;DHT22;4771;48.726;9.006;2023-09-07T13:21:59;27.00;98.80
9466;DHT22;4771;48.726;9.006;2023-09-07T13:24:26;26.90;98.90
9466;DHT22;4771;48.726;9.006;2023-09-07T13:26:53;26.80;98.50
9466;DHT22;4771;48.726;9.006;2023-09-07T13:29:19;26.80;98.90
9466;DHT22;4771;48.726;9.006;2023-09-07T13:31:46;26.70;99.10
9466;DHT22;4771;48.726;9.006;2023-09-07T13:34:13;26.60;99.90
9466;DHT22;4771;48.726;9.006;2023-09-07T13:36:40;26.60;99.30
9466;DHT22;4771;48.726;9.006;2023-09-07T13:39:08;26.50;99.70
9466;DHT22;4771;48.726;9.006;2023-09-07T13:41:35;26.40;99.10
9466;DHT22;4771;48.726;9.006;2023-09-07T13:44:02;26.40;99.70
9466;DHT22;4771;48.726;9.006;2023-09-07T13:46:29;26.40;98.80
9466;DHT22;4771;48.726;9.006;2023-09-07T13:48:56;26.30;97.80
9466;DHT22;4771;48.726;9.006;2023-09-07T13:51:23;26.20;98.30
9466;DHT22;4771;48.726;9.006;2023-09-07T13:53:50;26.20;98.70
9466;DHT22;4771;48.726;9.006;2023-09-07T13:56:19;26.10;99.00
9466;DHT22;4771;48.726;9.006;2023-09-07T13:58:46;26.10;98.30
9466;DHT22;4771;48.726;9.006;2023-09-07T14:01:12;26.20;98.40
9466;DHT22;4771;48.726;9.006;2023-09-07T14:03:39;26.20;98.80
9466;DHT22;4771;48.726;9.006;2023-09-07T14:06:06;26.20;99.00
9466;DHT22;4771;48.726;9.006;2023-09-07T14:08:33;26.30;98.60
9466;DHT22;4771;48.726;9.006;2023-09-07T14:11:00;26.30;98.80
9466;DHT22;4771;48.726;9.006;2023-09-07T14:13:28;26.40;99.40
9466;DHT22;4771;48.726;9.006;2023-09-07T14:15:55;26.50;99.90
9466;DHT22;4771;48.726;9.006;2023-09-07T14:18:22;26.60;98.60
9466;DHT22;4771;48.726;9.006;2023-09-07T14:20:49;26.60;97.80
9466;DHT22;4771;48.726;9.006;2023-09-07T14:23:16;26.70;98.00
9466;DHT22;4771;48.726;9.006;2023-09-07T14:25:43;26.70;98.00
9466;DHT22;4771;48.726;9.006;2023-09-07T14:28:11;26.70;97.00
9466;DHT22;4771;48.726;9.006;2023-09-07T14:30:39;26.70;96.30
9466;DHT22;4771;48.726;9.006;2023-09-07T14:33:06;26.70;96.70
9466;DHT22;4771;48.726;9.006;2023-09-07T14:35:33;26.60;96.80
9466;DHT22;4771;48.726;9.006;2023-09-07T14:38:00;26.60;96.60
9466;DHT22;4771;48.726;9.006;2023-09-07T14:40:27;26.60;97.90
9466;DHT22;4771;48.726;9.006;2023-09-07T14:42:54;26.60;97.80
9466;DHT22;4771;48.726;9.006;2023-09-07T14:45:23;26.50;97.20
9466;DHT22;4771;48.726;9.006;2023-09-07T14:47:52;26.50;96.80
9466;DHT22;4771;48.726;9.006;2023-09-07T14:50:19;26.50;96.20
9466;DHT22;4771;48.726;9.006;2023-09-07T14:52:46;26.50;96.10
9466;DHT22;4771;48.726;9.006;2023-09-07T14:55:13;26.40;96.30
9466;DHT22;4771;48.726;9.006;2023-09-07T14:57:41;26.40;96.90
9466;DHT22;4771;48.726;9.006;2023-09-07T15:00:09;26.40;97.10
9466;DHT22;4771;48.726;9.006;2023-09-07T15:02:37;26.30;97.10
9466;DHT22;4771;48.726;9.006;2023-09-07T15:05:05;26.30;97.00
9466;DHT22;4771;48.726;9.006;2023-09-07T15:07:32;26.20;97.30
9466;DHT22;4771;48.726;9.006;2023-09-07T15:09:59;26.20;97.50
9466;DHT22;4771;48.726;9.006;2023-09-07T15:12:26;26.20;97.70
9466;DHT22;4771;48.726;9.006;2023-09-07T15:14:53;26.10;98.20
9466;DHT22;4771;48.726;9.006;2023-09-07T15:17:20;26.10;98.00
9466;DHT22;4771;48.726;9.006;2023-09-07T15:19:47;26.10;97.90
9466;DHT22;4771;48.726;9.006;2023-09-07T15:22:15;26.00;98.00
9466;DHT22;4771;48.726;9.006;2023-09-07T15:24:42;26.00;97.80
9466;DHT22;4771;48.726;9.006;2023-09-07T15:27:09;26.00;98.60
9466;DHT22;4771;48.726;9.006;2023-09-07T15:29:36;26.00;98.60
9466;DHT22;4771;48.726;9.006;2023-09-07T15:32:03;26.00;99.20
9466;DHT22;4771;48.726;9.006;2023-09-07T15:34:29;26.00;98.60
9466;DHT22;4771;48.726;9.006;2023-09-07T15:36:56;26.00;98.00
9466;DHT22;4771;48.726;9.006;2023-09-07T15:39:24;25.90;97.90
9466;DHT22;4771;48.726;9.006;2023-09-07T15:41:51;25.90;99.20
9466;DHT22;4771;48.726;9.006;2023-09-07T15:44:19;25.90;98.20
9466;DHT22;4771;48.726;9.006;2023-09-07T15:46:48;25.80;98.90
9466;DHT22;4771;48.726;9.006;2023-09-07T15:49:16;25.80;98.60
9466;DHT22;4771;48.726;9.006;2023-09-07T15:51:44;25.80;99.30
9466;DHT22;4771;48.726;9.006;2023-09-07T15:54:11;25.80;99.90
9466;DHT22;4771;48.726;9.006;2023-09-07T15:56:39;25.80;99.40
9466;DHT22;4771;48.726;9.006;2023-09-07T15:59:07;25.80;99.40
9466;DHT22;4771;48.726;9.006;2023-09-07T16:01:34;25.70;99.10
9466;DHT22;4771;48.726;9.006;2023-09-07T16:04:02;25.60;99.00